KBAF/BAF METAR and TAF weather

Enter ICAO airport designator
Station Type Date Time Source
KBAF METAR 2019/04/18 20:19 UTC NOAA

KBAF 182019Z VRB03KT 4SM BR BKN009 OVC014 08/07 A3005 RMK AO2 T00830067


Station Type Date Time Source
KBAF Decoded METAR 2019/04/18 20:19 UTC NOAA

WESTFIELD BARNES MUNICIPAL, MA, United States (KBAF) 42-10N 072-43W 83M
Apr 18, 2019 - 04:19 PM EDT / 2019.04.18 2019 UTC
Wind: Variable at 3 MPH (3 KT):0
Visibility: 4 mile(s):0
Sky conditions: overcast
Weather: mist
Temperature: 46.9 F (8.3 C)
Dew Point: 44.1 F (6.7 C)
Relative Humidity: 89%
Pressure (altimeter): 30.05 in. Hg (1017 hPa)
ob: KBAF 182019Z VRB03KT 4SM BR BKN009 OVC014 08/07 A3005 RMK AO2 T00830067
cycle: 20

Station Type Date Time Source
KBAF TAF 2019/04/18 18:28 UTC NOAA

TAF KBAF 181725Z 1818/1918 16012KT P6SM OVC035
FM182000 16012KT P6SM VCSH OVC015
FM190300 17007KT P6SM -DZ OVC015
FM191100 20010G21KT P6SM OVC015

Example: see airport list